createdAt,value
2018-07-30T00:01:48.629Z,3.72
2018-07-30T00:04:18.013Z,3.62
2018-07-30T00:06:47.357Z,4.20
2018-07-30T00:09:16.561Z,3.50
2018-07-30T00:11:45.818Z,4.33
2018-07-30T00:14:15.042Z,3.72
2018-07-30T00:16:44.293Z,4.40
2018-07-30T00:19:13.501Z,3.80
2018-07-30T00:21:42.741Z,4.10
2018-07-30T00:24:11.973Z,3.75
2018-07-30T00:26:41.223Z,4.00
2018-07-30T00:29:10.493Z,3.27
2018-07-30T00:31:39.736Z,4.55
2018-07-30T00:34:08.953Z,3.98
2018-07-30T00:36:38.181Z,5.25
2018-07-30T00:39:10.665Z,3.83
2018-07-30T00:41:40.173Z,3.83
2018-07-30T00:44:09.490Z,4.22
2018-07-30T00:46:38.813Z,4.05
2018-07-30T00:49:08.501Z,4.08
2018-07-30T00:51:37.719Z,4.05
2018-07-30T00:54:06.937Z,3.95
2018-07-30T00:56:36.163Z,3.25
2018-07-30T00:59:05.484Z,4.92
2018-07-30T01:01:34.706Z,3.90
2018-07-30T01:04:03.885Z,3.70
2018-07-30T01:06:33.088Z,3.52
2018-07-30T01:09:02.305Z,3.50
2018-07-30T01:11:31.531Z,3.92
2018-07-30T01:14:00.720Z,3.40
2018-07-30T01:16:29.951Z,4.53
2018-07-30T01:18:59.137Z,3.62
2018-07-30T01:21:28.357Z,3.35
2018-07-30T01:23:57.573Z,3.27
2018-07-30T01:26:27.701Z,3.92
2018-07-30T01:28:57.937Z,4.08
2018-07-30T01:31:27.134Z,3.60
2018-07-30T01:33:56.361Z,3.67
2018-07-30T01:36:25.573Z,4.40
2018-07-30T01:38:54.831Z,3.80
2018-07-30T01:41:24.025Z,3.55
2018-07-30T01:43:53.293Z,3.87
2018-07-30T01:46:22.502Z,3.85
2018-07-30T01:48:51.724Z,3.42
2018-07-30T01:51:20.953Z,4.05
2018-07-30T01:53:50.180Z,3.77
2018-07-30T01:56:19.366Z,4.55
2018-07-30T01:58:48.594Z,3.30
2018-07-30T02:01:17.912Z,4.12
2018-07-30T02:03:47.136Z,3.42
2018-07-30T02:06:16.356Z,3.75
2018-07-30T02:08:45.580Z,3.45
2018-07-30T02:11:14.782Z,4.50
2018-07-30T02:13:44.037Z,3.90
2018-07-30T02:16:13.288Z,3.83
2018-07-30T02:18:42.528Z,3.67
2018-07-30T02:21:11.757Z,3.40
2018-07-30T02:23:41.102Z,3.98
2018-07-30T02:26:10.348Z,3.60
2018-07-30T02:28:39.604Z,3.87
2018-07-30T02:31:08.849Z,3.95
2018-07-30T02:33:38.100Z,3.62
2018-07-30T02:36:08.160Z,3.60
2018-07-30T02:38:37.370Z,3.50
2018-07-30T02:41:06.847Z,3.50
2018-07-30T02:43:36.097Z,3.77
2018-07-30T02:46:05.414Z,3.67
2018-07-30T02:48:34.646Z,5.17
2018-07-30T02:51:03.862Z,3.75
2018-07-30T02:53:33.092Z,4.00
2018-07-30T02:56:02.277Z,4.00
2018-07-30T02:58:31.492Z,4.12
2018-07-30T03:01:00.682Z,4.65
2018-07-30T03:03:29.933Z,4.33
2018-07-30T03:05:59.134Z,5.20
2018-07-30T03:08:28.345Z,4.10
2018-07-30T03:10:57.586Z,4.08
2018-07-30T03:13:26.789Z,4.05
2018-07-30T03:15:56.017Z,4.53
2018-07-30T03:18:25.402Z,3.92
2018-07-30T03:20:54.656Z,4.20
2018-07-30T03:23:23.859Z,4.62
2018-07-30T03:25:53.096Z,3.77
2018-07-30T03:28:22.337Z,4.62
2018-07-30T03:30:51.590Z,4.85
2018-07-30T03:33:20.820Z,4.28
2018-07-30T03:35:50.043Z,4.75
2018-07-30T03:38:19.249Z,4.37
2018-07-30T03:40:48.485Z,4.53
2018-07-30T03:43:17.709Z,5.28
2018-07-30T03:45:46.983Z,3.92
2018-07-30T03:48:16.223Z,4.40
2018-07-30T03:50:45.445Z,4.05
2018-07-30T03:53:14.632Z,3.87
2018-07-30T03:55:43.864Z,5.55
2018-07-30T03:58:13.068Z,3.90
2018-07-30T04:00:42.313Z,4.28
2018-07-30T04:03:11.518Z,4.45
2018-07-30T04:05:41.058Z,4.42
2018-07-30T04:08:10.265Z,4.00
2018-07-30T04:10:39.495Z,4.30
2018-07-30T04:13:08.740Z,4.22
2018-07-30T04:15:38.010Z,3.85
2018-07-30T04:18:07.236Z,4.20
2018-07-30T04:20:36.501Z,4.17
2018-07-30T04:23:05.693Z,4.45
2018-07-30T04:25:34.919Z,3.90
2018-07-30T04:28:04.118Z,4.53
2018-07-30T04:30:33.355Z,4.20
2018-07-30T04:33:02.622Z,4.22
2018-07-30T04:35:31.845Z,3.83
2018-07-30T04:38:00.813Z,4.15
2018-07-30T04:40:30.142Z,4.40
2018-07-30T04:42:59.332Z,3.67
2018-07-30T04:45:28.547Z,4.53
2018-07-30T04:47:57.789Z,4.05
2018-07-30T04:50:27.081Z,4.55
2018-07-30T04:52:56.301Z,4.65
2018-07-30T04:55:25.536Z,4.05
2018-07-30T04:57:54.794Z,6.30
2018-07-30T05:00:24.001Z,4.53
2018-07-30T05:02:53.233Z,4.37
2018-07-30T05:05:22.472Z,4.10
2018-07-30T05:07:52.233Z,4.42
2018-07-30T05:10:21.487Z,4.55
2018-07-30T05:12:50.729Z,5.15
2018-07-30T05:15:19.916Z,7.12
2018-07-30T05:17:49.153Z,4.83
2018-07-30T05:20:18.393Z,8.43
2018-07-30T05:22:47.613Z,4.20
2018-07-30T05:25:16.820Z,5.12
2018-07-30T05:27:46.070Z,5.78
2018-07-30T05:30:15.280Z,4.58
2018-07-30T05:32:45.353Z,4.62
2018-07-30T05:35:14.546Z,5.65
2018-07-30T05:37:43.782Z,5.03
2018-07-30T05:40:12.977Z,4.50
2018-07-30T05:42:42.200Z,4.47
2018-07-30T05:45:11.492Z,4.85
2018-07-30T05:47:40.730Z,4.50
2018-07-30T05:50:09.993Z,5.55
2018-07-30T05:52:39.327Z,5.20
2018-07-30T05:55:08.524Z,4.17
2018-07-30T05:57:37.839Z,3.87
2018-07-30T06:00:07.433Z,4.03
2018-07-30T06:02:36.701Z,4.37
2018-07-30T06:05:06.602Z,3.60
2018-07-30T06:07:35.841Z,4.25
2018-07-30T06:10:05.634Z,4.10
2018-07-30T06:12:34.848Z,3.87
2018-07-30T06:15:04.629Z,3.90
2018-07-30T06:17:33.886Z,3.95
2018-07-30T06:20:03.114Z,4.30
2018-07-30T06:22:32.366Z,4.45
2018-07-30T06:25:01.606Z,4.35
2018-07-30T06:27:30.894Z,4.42
2018-07-30T06:30:00.053Z,4.12
2018-07-30T06:32:29.302Z,4.37
2018-07-30T06:34:58.512Z,3.83
2018-07-30T06:37:27.716Z,3.52
2018-07-30T06:39:56.971Z,4.10
2018-07-30T06:42:26.197Z,4.20
2018-07-30T06:44:55.408Z,3.98
2018-07-30T06:47:24.608Z,4.50
2018-07-30T06:49:54.010Z,4.17
2018-07-30T06:52:23.327Z,4.17
2018-07-30T06:54:52.561Z,6.33
2018-07-30T06:57:21.770Z,4.67
2018-07-30T06:59:51.001Z,4.87
2018-07-30T07:02:20.231Z,4.30
2018-07-30T07:04:49.461Z,6.55
2018-07-30T07:07:18.680Z,5.30
2018-07-30T07:09:47.929Z,3.80
2018-07-30T07:12:17.144Z,4.42
2018-07-30T07:14:46.430Z,4.67
2018-07-30T07:17:15.701Z,4.60
2018-07-30T07:19:44.938Z,5.55
2018-07-30T07:22:14.138Z,4.55
2018-07-30T07:24:43.423Z,4.58
2018-07-30T07:27:12.660Z,4.20
2018-07-30T07:29:42.227Z,4.00
2018-07-30T07:32:11.456Z,4.05
2018-07-30T07:34:40.714Z,3.98
2018-07-30T07:37:09.961Z,4.30
2018-07-30T07:39:39.204Z,5.08
2018-07-30T07:42:08.452Z,4.37
2018-07-30T07:44:37.728Z,4.22
2018-07-30T07:47:07.257Z,4.83
2018-07-30T07:49:36.482Z,4.42
2018-07-30T07:52:05.780Z,4.28
2018-07-30T07:54:35.019Z,4.42
2018-07-30T07:57:04.265Z,4.15
2018-07-30T07:59:33.489Z,5.03
2018-07-30T08:02:02.711Z,4.00
2018-07-30T08:04:31.981Z,4.65
2018-07-30T08:07:01.209Z,4.42
2018-07-30T08:09:31.470Z,4.30
2018-07-30T08:12:00.700Z,4.22
2018-07-30T08:14:29.903Z,4.10
2018-07-30T08:16:59.130Z,4.12
2018-07-30T08:19:28.337Z,4.10
2018-07-30T08:21:57.562Z,3.80
2018-07-30T08:24:26.825Z,5.28
2018-07-30T08:26:56.080Z,4.28
2018-07-30T08:29:25.330Z,4.62
2018-07-30T08:31:54.591Z,4.33
2018-07-30T08:34:23.808Z,4.47
2018-07-30T08:36:53.017Z,4.17
2018-07-30T08:39:22.244Z,4.17
2018-07-30T08:41:51.533Z,4.85
2018-07-30T08:44:20.742Z,4.25
2018-07-30T08:46:50.020Z,4.20
2018-07-30T08:49:19.223Z,4.30
2018-07-30T08:51:48.441Z,4.17
2018-07-30T08:54:17.637Z,4.12
2018-07-30T08:56:46.864Z,4.83
2018-07-30T08:59:15.804Z,3.62
2018-07-30T09:01:45.120Z,8.15
2018-07-30T09:04:14.328Z,4.30
2018-07-30T09:06:43.539Z,3.83
2018-07-30T09:09:12.733Z,4.28
2018-07-30T09:11:42.007Z,4.65
2018-07-30T09:14:11.233Z,4.08
2018-07-30T09:16:41.329Z,4.05
2018-07-30T09:19:10.549Z,3.83
2018-07-30T09:21:39.784Z,3.98
2018-07-30T09:24:08.998Z,4.22
2018-07-30T09:26:38.212Z,4.60
2018-07-30T09:29:07.464Z,4.25
2018-07-30T09:31:36.678Z,4.00
2018-07-30T09:34:05.965Z,4.47
2018-07-30T09:36:35.224Z,3.95
2018-07-30T09:39:06.715Z,4.00
2018-07-30T09:41:36.008Z,4.12
2018-07-30T09:44:05.221Z,4.33
2018-07-30T09:46:34.485Z,5.05
2018-07-30T09:49:03.745Z,4.03
2018-07-30T09:51:33.005Z,3.95
2018-07-30T09:54:02.272Z,3.98
2018-07-30T09:56:31.614Z,4.08
2018-07-30T09:59:00.868Z,4.53
2018-07-30T10:01:31.368Z,3.65
2018-07-30T10:04:01.520Z,3.95
2018-07-30T10:06:30.768Z,3.87
2018-07-30T10:08:59.999Z,3.58
2018-07-30T10:11:29.262Z,4.03
2018-07-30T10:13:58.513Z,4.70
2018-07-30T10:16:27.731Z,3.55
2018-07-30T10:18:56.979Z,3.70
2018-07-30T10:21:26.221Z,3.90
2018-07-30T10:23:55.460Z,3.90
2018-07-30T10:26:24.673Z,3.58
2018-07-30T10:28:53.942Z,3.62
2018-07-30T10:31:23.169Z,3.65
2018-07-30T10:33:52.445Z,3.90
2018-07-30T10:36:21.665Z,4.75
2018-07-30T10:38:50.925Z,4.10
2018-07-30T10:41:20.280Z,3.90
2018-07-30T10:43:49.519Z,3.98
2018-07-30T10:46:18.795Z,4.58
2018-07-30T10:48:48.041Z,4.25
2018-07-30T10:51:17.255Z,3.50
2018-07-30T10:53:46.546Z,3.67
2018-07-30T10:56:15.752Z,4.58
2018-07-30T10:58:45.018Z,3.98
2018-07-30T11:01:14.284Z,4.12
2018-07-30T11:03:43.533Z,3.77
2018-07-30T11:06:12.768Z,3.77
2018-07-30T11:08:42.091Z,3.85
2018-07-30T11:11:11.296Z,3.95
2018-07-30T11:13:40.545Z,3.87
2018-07-30T11:16:09.785Z,3.87
2018-07-30T11:18:39.024Z,4.47
2018-07-30T11:21:08.246Z,3.55
2018-07-30T11:23:37.493Z,4.22
2018-07-30T11:26:06.708Z,3.60
2018-07-30T11:28:35.900Z,4.15
2018-07-30T11:31:05.136Z,4.60
2018-07-30T11:33:34.377Z,4.10
2018-07-30T11:36:03.733Z,3.77
2018-07-30T11:38:32.942Z,3.30
2018-07-30T11:41:02.196Z,4.33
2018-07-30T11:43:31.441Z,3.98
2018-07-30T11:46:00.658Z,3.75
2018-07-30T11:48:29.941Z,4.00
2018-07-30T11:50:59.124Z,3.58
2018-07-30T11:53:28.330Z,3.92
2018-07-30T11:55:57.556Z,4.72
2018-07-30T11:58:26.769Z,4.40
2018-07-30T12:00:56.061Z,4.20
2018-07-30T12:03:25.274Z,3.85
2018-07-30T12:05:54.981Z,4.10
2018-07-30T12:08:24.205Z,4.05
2018-07-30T12:10:53.677Z,4.08
2018-07-30T12:13:22.971Z,4.30
2018-07-30T12:15:52.454Z,3.83
2018-07-30T12:18:21.665Z,4.03
2018-07-30T12:20:50.894Z,5.53
2018-07-30T12:23:20.077Z,3.58
2018-07-30T12:25:49.293Z,4.00
2018-07-30T12:28:18.469Z,3.77
2018-07-30T12:30:47.976Z,4.40
2018-07-30T12:33:17.193Z,3.90
2018-07-30T12:35:46.410Z,4.03
2018-07-30T12:38:15.596Z,3.70
2018-07-30T12:40:44.817Z,3.95
2018-07-30T12:43:14.001Z,4.12
2018-07-30T12:45:44.340Z,4.17
2018-07-30T12:48:13.573Z,3.95
2018-07-30T12:50:42.809Z,4.05
2018-07-30T12:53:12.002Z,5.28
2018-07-30T12:55:41.225Z,3.45
2018-07-30T12:58:10.425Z,3.47
2018-07-30T13:00:39.677Z,3.55
2018-07-30T13:03:08.906Z,3.52
2018-07-30T13:05:38.084Z,3.47
2018-07-30T13:08:07.299Z,3.85
2018-07-30T13:10:36.572Z,3.92
2018-07-30T13:13:05.771Z,3.50
2018-07-30T13:15:34.988Z,3.72
2018-07-30T13:18:04.261Z,4.47
2018-07-30T13:20:33.489Z,3.42
2018-07-30T13:23:02.759Z,3.95
2018-07-30T13:25:32.001Z,3.45
2018-07-30T13:28:01.309Z,4.92
2018-07-30T13:30:30.562Z,3.55
2018-07-30T13:32:59.831Z,4.20
2018-07-30T13:35:29.085Z,4.20
2018-07-30T13:37:58.305Z,4.15
2018-07-30T13:40:27.489Z,4.22
2018-07-30T13:42:56.697Z,3.92
2018-07-30T13:45:25.996Z,3.83
2018-07-30T13:47:55.220Z,3.55
2018-07-30T13:50:24.419Z,3.35
2018-07-30T13:52:53.657Z,4.92
2018-07-30T13:55:22.894Z,3.22
2018-07-30T13:57:52.119Z,4.15
2018-07-30T14:00:21.353Z,3.58
2018-07-30T14:02:50.582Z,3.05
2018-07-30T14:05:19.804Z,3.45
2018-07-30T14:07:49.028Z,3.67
2018-07-30T14:10:18.228Z,4.70
2018-07-30T14:12:47.487Z,4.12
2018-07-30T14:15:16.700Z,3.72
2018-07-30T14:17:45.944Z,3.27
2018-07-30T14:20:15.177Z,4.33
2018-07-30T14:22:44.473Z,4.17
2018-07-30T14:25:13.721Z,3.47
2018-07-30T14:27:42.905Z,4.05
2018-07-30T14:30:12.120Z,3.60
2018-07-30T14:32:44.344Z,3.62
2018-07-30T14:35:13.570Z,3.58
2018-07-30T14:37:42.780Z,3.70
2018-07-30T14:40:14.160Z,3.45
2018-07-30T14:42:43.400Z,3.60
2018-07-30T14:45:12.649Z,3.08
2018-07-30T14:47:41.846Z,3.40
2018-07-30T14:50:11.601Z,3.25
2018-07-30T14:52:40.808Z,3.20
2018-07-30T14:55:10.100Z,2.85
2018-07-30T14:57:39.333Z,2.83
2018-07-30T15:00:10.090Z,3.22
2018-07-30T15:02:39.300Z,3.10
2018-07-30T15:05:08.520Z,3.22
2018-07-30T15:07:37.741Z,3.65
2018-07-30T15:10:07.069Z,3.00
2018-07-30T15:12:36.345Z,3.75
2018-07-30T15:15:05.558Z,3.75
2018-07-30T15:17:34.802Z,3.40
2018-07-30T15:20:04.544Z,3.92
2018-07-30T15:22:33.763Z,3.30
2018-07-30T15:25:03.007Z,3.42
2018-07-30T15:27:32.265Z,5.80
2018-07-30T15:30:01.508Z,4.08
2018-07-30T15:32:30.742Z,3.58
2018-07-30T15:34:59.968Z,3.15
2018-07-30T15:37:29.180Z,3.17
2018-07-30T15:39:58.395Z,3.70
2018-07-30T15:42:27.632Z,3.45
2018-07-30T15:44:56.896Z,3.52
2018-07-30T15:47:26.166Z,3.37
2018-07-30T15:49:55.405Z,3.62
2018-07-30T15:52:24.608Z,4.05
2018-07-30T15:54:53.692Z,3.30
2018-07-30T15:57:22.885Z,3.67
2018-07-30T15:59:52.115Z,3.77
2018-07-30T16:02:21.338Z,4.15
2018-07-30T16:04:50.552Z,3.85
2018-07-30T16:07:19.746Z,3.50
2018-07-30T16:09:49.041Z,3.47
2018-07-30T16:12:18.312Z,3.75
2018-07-30T16:14:47.605Z,3.67
2018-07-30T16:17:16.830Z,3.83
2018-07-30T16:19:46.008Z,3.25
2018-07-30T16:22:15.204Z,4.72
2018-07-30T16:24:44.397Z,4.58
2018-07-30T16:27:13.582Z,3.40
2018-07-30T16:29:42.762Z,3.55
2018-07-30T16:32:11.759Z,3.65
2018-07-30T16:34:40.704Z,3.50
2018-07-30T16:37:09.929Z,4.10
2018-07-30T16:39:39.171Z,3.65
2018-07-30T16:42:08.380Z,3.58
2018-07-30T16:44:37.677Z,4.53
2018-07-30T16:47:07.015Z,3.42
2018-07-30T16:49:36.152Z,3.98
2018-07-30T16:52:05.365Z,3.42
2018-07-30T16:54:34.581Z,3.47
2018-07-30T16:57:03.789Z,4.67
2018-07-30T16:59:33.012Z,4.08
2018-07-30T17:02:02.221Z,3.90
2018-07-30T17:04:31.397Z,3.67
2018-07-30T17:07:00.617Z,3.77
2018-07-30T17:09:29.789Z,3.83
2018-07-30T17:11:59.006Z,3.52
2018-07-30T17:14:28.201Z,3.90
2018-07-30T17:16:57.416Z,4.20
2018-07-30T17:19:26.644Z,3.77
2018-07-30T17:21:55.865Z,6.55
2018-07-30T17:24:25.082Z,4.55
2018-07-30T17:26:54.300Z,4.00
2018-07-30T17:29:23.557Z,3.75
2018-07-30T17:31:52.776Z,3.72
2018-07-30T17:34:21.995Z,4.20
2018-07-30T17:36:51.201Z,4.50
2018-07-30T17:39:20.402Z,4.62
2018-07-30T17:41:49.619Z,3.80
2018-07-30T17:44:18.840Z,4.53
2018-07-30T17:46:48.060Z,3.75
2018-07-30T17:49:17.271Z,4.45
2018-07-30T17:51:46.448Z,5.22
2018-07-30T17:54:15.672Z,4.33
2018-07-30T17:56:44.843Z,5.62
2018-07-30T17:59:14.050Z,4.47
2018-07-30T18:01:43.269Z,4.35
2018-07-30T18:04:12.476Z,4.47
2018-07-30T18:06:41.696Z,5.50
2018-07-30T18:09:11.171Z,4.62
2018-07-30T18:11:40.368Z,5.05
2018-07-30T18:14:09.560Z,6.03
2018-07-30T18:16:38.766Z,4.50
2018-07-30T18:19:08.027Z,5.37
2018-07-30T18:21:37.329Z,4.37
2018-07-30T18:24:06.533Z,4.92
2018-07-30T18:26:35.733Z,5.08
2018-07-30T18:29:04.958Z,4.53
2018-07-30T18:31:34.152Z,4.65
2018-07-30T18:34:03.347Z,4.67
2018-07-30T18:36:32.524Z,5.22
2018-07-30T18:39:01.746Z,4.67
2018-07-30T18:41:31.954Z,5.12
2018-07-30T18:44:01.149Z,5.85
2018-07-30T18:46:30.328Z,5.35
2018-07-30T18:48:59.533Z,5.17
2018-07-30T18:51:28.699Z,5.10
2018-07-30T18:53:57.911Z,6.33
2018-07-30T18:56:27.174Z,5.15
2018-07-30T18:58:56.460Z,7.15
2018-07-30T19:01:25.690Z,4.83
2018-07-30T19:03:54.931Z,5.22
2018-07-30T19:06:24.147Z,5.30
2018-07-30T19:08:53.394Z,4.72
2018-07-30T19:11:22.588Z,5.12
2018-07-30T19:13:51.844Z,5.83
2018-07-30T19:16:21.077Z,5.83
2018-07-30T19:18:50.527Z,5.12
2018-07-30T19:21:19.716Z,6.42
2018-07-30T19:23:48.926Z,5.35
2018-07-30T19:26:18.138Z,5.50
2018-07-30T19:28:47.371Z,5.20
2018-07-30T19:31:16.579Z,7.47
2018-07-30T19:33:45.793Z,5.20
2018-07-30T19:36:15.030Z,5.55
2018-07-30T19:38:44.220Z,5.90
2018-07-30T19:41:13.577Z,6.03
2018-07-30T19:43:42.775Z,4.58
2018-07-30T19:46:12.025Z,6.83
2018-07-30T19:48:41.345Z,7.22
2018-07-30T19:51:10.588Z,5.55
2018-07-30T19:53:39.789Z,5.47
2018-07-30T19:56:08.985Z,5.95
2018-07-30T19:58:38.319Z,5.72
2018-07-30T20:01:07.829Z,6.10
2018-07-30T20:03:37.064Z,5.78
2018-07-30T20:06:06.489Z,5.80
2018-07-30T20:08:35.742Z,5.67
2018-07-30T20:11:04.998Z,6.62
2018-07-30T20:13:34.212Z,9.73
2018-07-30T20:16:03.480Z,6.10
2018-07-30T20:18:32.697Z,7.42
2018-07-30T20:21:01.909Z,6.40
2018-07-30T20:23:31.201Z,5.20
2018-07-30T20:26:00.409Z,5.78
2018-07-30T20:28:29.881Z,5.90
2018-07-30T20:30:59.165Z,6.60
2018-07-30T20:33:28.347Z,5.62
2018-07-30T20:35:57.577Z,5.55
2018-07-30T20:38:26.769Z,5.92
2018-07-30T20:40:55.996Z,5.20
2018-07-30T20:43:25.200Z,6.35
2018-07-30T20:45:54.453Z,6.12
2018-07-30T20:48:23.689Z,5.65
2018-07-30T20:50:52.912Z,5.75
2018-07-30T20:53:22.125Z,6.05
2018-07-30T20:55:51.389Z,8.45
2018-07-30T20:58:20.588Z,7.10
2018-07-30T21:00:49.771Z,7.45
2018-07-30T21:03:18.983Z,7.80
2018-07-30T21:05:48.220Z,7.05
2018-07-30T21:08:17.460Z,5.80
2018-07-30T21:10:46.953Z,6.45
2018-07-30T21:13:17.219Z,6.70
2018-07-30T21:15:46.917Z,5.17
2018-07-30T21:18:16.340Z,6.97
2018-07-30T21:20:45.622Z,5.67
2018-07-30T21:23:14.820Z,5.45
2018-07-30T21:25:44.247Z,5.60
2018-07-30T21:28:13.706Z,5.95
2018-07-30T21:30:42.924Z,5.65
2018-07-30T21:33:12.152Z,5.37
2018-07-30T21:35:41.368Z,7.75
2018-07-30T21:38:10.601Z,5.60
2018-07-30T21:40:39.808Z,7.55
2018-07-30T21:43:09.070Z,7.12
2018-07-30T21:45:38.267Z,6.00
2018-07-30T21:48:07.498Z,6.58
2018-07-30T21:50:36.679Z,6.22
2018-07-30T21:53:06.117Z,6.55
2018-07-30T21:55:35.340Z,6.85
2018-07-30T21:58:04.560Z,6.03
2018-07-30T22:00:33.780Z,7.78
2018-07-30T22:03:02.989Z,7.50
2018-07-30T22:05:32.202Z,8.65
2018-07-30T22:08:01.461Z,10.15
2018-07-30T22:10:30.678Z,6.42
2018-07-30T22:12:59.895Z,5.55
2018-07-30T22:15:29.144Z,5.83
2018-07-30T22:17:58.361Z,5.35
2018-07-30T22:20:27.585Z,5.60
2018-07-30T22:22:56.857Z,5.83
2018-07-30T22:25:26.049Z,7.22
2018-07-30T22:27:55.292Z,5.95
2018-07-30T22:30:24.508Z,6.92
2018-07-30T22:32:53.734Z,7.70
2018-07-30T22:35:22.929Z,5.90
2018-07-30T22:37:52.186Z,6.53
2018-07-30T22:40:21.372Z,6.05
2018-07-30T22:42:50.573Z,7.60
2018-07-30T22:45:19.771Z,9.53
2018-07-30T22:47:48.972Z,11.12
2018-07-30T22:50:18.187Z,9.55
2018-07-30T22:52:47.401Z,8.30
2018-07-30T22:55:16.689Z,9.88
2018-07-30T22:57:45.958Z,8.48
2018-07-30T23:00:15.232Z,7.40
2018-07-30T23:02:44.428Z,8.40
2018-07-30T23:05:13.652Z,7.92
2018-07-30T23:07:42.861Z,6.62
2018-07-30T23:10:12.089Z,7.30
2018-07-30T23:12:41.409Z,5.95
2018-07-30T23:15:11.169Z,6.00
2018-07-30T23:17:40.417Z,6.55
2018-07-30T23:20:09.671Z,6.58
2018-07-30T23:22:38.908Z,5.97
2018-07-30T23:25:08.123Z,5.95
2018-07-30T23:27:37.336Z,7.42
2018-07-30T23:30:07.541Z,5.72
2018-07-30T23:32:36.748Z,6.17
2018-07-30T23:35:06.004Z,5.85
2018-07-30T23:37:35.208Z,7.08
2018-07-30T23:40:05.109Z,7.55
2018-07-30T23:42:34.313Z,7.17
2018-07-30T23:45:03.549Z,6.30
2018-07-30T23:47:32.765Z,6.65
2018-07-30T23:50:01.978Z,6.97
2018-07-30T23:52:31.182Z,5.92
2018-07-30T23:55:00.543Z,6.30
2018-07-30T23:57:29.721Z,6.47
2018-07-30T23:59:58.900Z,7.45
